SWA6132 KDAL-KTYS
Flight info
| Callsign | SWA6132 |
|---|---|
| Flight time | 1h 22m |
| Altitude | 35000 |
| Route | LOOSE DCT MEM |
| Aircraft | B737/M-SDE2E3GIJ4RWZ/LB1D1 |
Departure
| Time | 2026-04-30 09:46 |
|---|---|
| Airport | Dallas Love Field (KDAL) |
Arrival
| Time | 2026-04-30 11:08 |
|---|---|
| Airport | McGhee Tyson Airport (KTYS) |
| Time | Latitude | Longitude | Altitude | Speed | Heading |
|---|---|---|---|---|---|
| 2026-04-30 09:39 | 32.83770 | -96.84468 | 482 ft | 0 kts | 47° |
| 2026-04-30 09:43 | 32.83761 | -96.84487 | 471 ft | 3 kts | 86° |
| 2026-04-30 09:44 | 32.83755 | -96.84482 | 475 ft | 12 kts | 114° |
| 2026-04-30 09:44 | 32.83673 | -96.84455 | 477 ft | 13 kts | 159° |
| 2026-04-30 09:44 | 32.83604 | -96.84383 | 478 ft | 13 kts | 133° |
| 2026-04-30 09:44 | 32.83537 | -96.84306 | 479 ft | 13 kts | 140° |
| 2026-04-30 09:45 | 32.83453 | -96.84300 | 474 ft | 13 kts | 213° |
| 2026-04-30 09:45 | 32.83441 | -96.84390 | 475 ft | 13 kts | 308° |
| 2026-04-30 09:45 | 32.83669 | -96.84664 | 482 ft | 95 kts | 316° |
| 2026-04-30 09:45 | 32.84362 | -96.85465 | 514 ft | 176 kts | 316° |
| 2026-04-30 09:46 | 32.85377 | -96.86557 | 1156 ft | 215 kts | 321° |
| 2026-04-30 09:46 | 32.86593 | -96.87816 | 1776 ft | 248 kts | 321° |
| 2026-04-30 09:46 | 32.88090 | -96.89000 | 2230 ft | 266 kts | 340° |
| 2026-04-30 09:46 | 32.89862 | -96.89694 | 2748 ft | 271 kts | 354° |
| 2026-04-30 09:47 | 32.91741 | -96.89746 | 3284 ft | 273 kts | 16° |
| 2026-04-30 09:47 | 32.93469 | -96.88974 | 3807 ft | 267 kts | 36° |
| 2026-04-30 09:47 | 32.94846 | -96.87493 | 4368 ft | 270 kts | 55° |
| 2026-04-30 09:47 | 32.95687 | -96.85483 | 4952 ft | 276 kts | 75° |
| 2026-04-30 09:48 | 32.95867 | -96.83179 | 5518 ft | 285 kts | 93° |
| 2026-04-30 09:48 | 32.95597 | -96.80799 | 6158 ft | 295 kts | 100° |
| 2026-04-30 09:48 | 32.95030 | -96.78409 | 6752 ft | 304 kts | 110° |
| 2026-04-30 09:48 | 32.94194 | -96.76072 | 7318 ft | 310 kts | 114° |
| 2026-04-30 09:49 | 32.93182 | -96.73768 | 7885 ft | 317 kts | 120° |
| 2026-04-30 09:49 | 32.92008 | -96.71562 | 8443 ft | 323 kts | 121° |
| 2026-04-30 09:49 | 32.91000 | -96.69237 | 8790 ft | 309 kts | 105° |
| 2026-04-30 09:49 | 32.90905 | -96.66740 | 8941 ft | 302 kts | 73° |
| 2026-04-30 09:50 | 32.91573 | -96.64401 | 9342 ft | 297 kts | 66° |
| 2026-04-30 09:50 | 32.92276 | -96.62043 | 9874 ft | 307 kts | 67° |
| 2026-04-30 09:50 | 32.92977 | -96.59623 | 10297 ft | 313 kts | 68° |
| 2026-04-30 09:50 | 32.93709 | -96.57103 | 10694 ft | 330 kts | 68° |
| 2026-04-30 09:51 | 32.94485 | -96.54462 | 11088 ft | 345 kts | 67° |
| 2026-04-30 09:51 | 32.95300 | -96.51714 | 11479 ft | 358 kts | 67° |
| 2026-04-30 09:51 | 32.96145 | -96.48866 | 11869 ft | 371 kts | 68° |
| 2026-04-30 09:51 | 32.97015 | -96.45947 | 12239 ft | 376 kts | 67° |
| 2026-04-30 09:52 | 32.97888 | -96.43030 | 12602 ft | 381 kts | 68° |
| 2026-04-30 09:52 | 32.98754 | -96.40027 | 12955 ft | 385 kts | 68° |
| 2026-04-30 09:52 | 32.99614 | -96.36993 | 13309 ft | 388 kts | 68° |
| 2026-04-30 09:52 | 33.00484 | -96.33931 | 13676 ft | 392 kts | 68° |
| 2026-04-30 09:53 | 33.01360 | -96.30834 | 14010 ft | 396 kts | 68° |
| 2026-04-30 09:53 | 33.02244 | -96.27720 | 14304 ft | 398 kts | 68° |
| 2026-04-30 09:53 | 33.03169 | -96.24608 | 14616 ft | 399 kts | 67° |
| 2026-04-30 09:53 | 33.04103 | -96.21483 | 14915 ft | 402 kts | 68° |
| 2026-04-30 09:54 | 33.05012 | -96.18319 | 15299 ft | 404 kts | 68° |
| 2026-04-30 09:54 | 33.05927 | -96.15133 | 15715 ft | 408 kts | 68° |
| 2026-04-30 09:54 | 33.06843 | -96.11966 | 16134 ft | 410 kts | 68° |
| 2026-04-30 09:54 | 33.07780 | -96.08726 | 16556 ft | 414 kts | 68° |
| 2026-04-30 09:55 | 33.08728 | -96.05465 | 16969 ft | 417 kts | 68° |
| 2026-04-30 09:55 | 33.09682 | -96.02186 | 17381 ft | 420 kts | 68° |
| 2026-04-30 09:55 | 33.10649 | -95.98885 | 17794 ft | 424 kts | 68° |
| 2026-04-30 09:55 | 33.11608 | -95.95546 | 18196 ft | 427 kts | 69° |
| 2026-04-30 09:56 | 33.12548 | -95.92179 | 18564 ft | 430 kts | 69° |
| 2026-04-30 09:56 | 33.13502 | -95.88771 | 18934 ft | 434 kts | 69° |
| 2026-04-30 09:56 | 33.14455 | -95.85347 | 19297 ft | 437 kts | 69° |
| 2026-04-30 09:56 | 33.15416 | -95.81893 | 19698 ft | 440 kts | 68° |
| 2026-04-30 09:57 | 33.16415 | -95.78427 | 20059 ft | 444 kts | 68° |
| 2026-04-30 09:57 | 33.17429 | -95.74930 | 20429 ft | 447 kts | 68° |
| 2026-04-30 09:57 | 33.18444 | -95.71405 | 20795 ft | 450 kts | 68° |
| 2026-04-30 09:57 | 33.19465 | -95.67851 | 21162 ft | 453 kts | 68° |
| 2026-04-30 09:58 | 33.20477 | -95.64323 | 21536 ft | 457 kts | 68° |
| 2026-04-30 09:58 | 33.21503 | -95.60716 | 21917 ft | 460 kts | 68° |
| 2026-04-30 09:58 | 33.22537 | -95.57066 | 22304 ft | 465 kts | 68° |
| 2026-04-30 09:58 | 33.23576 | -95.53399 | 22683 ft | 469 kts | 68° |
| 2026-04-30 09:59 | 33.25679 | -95.45965 | 23417 ft | 475 kts | 68° |
| 2026-04-30 09:59 | 33.27800 | -95.38415 | 24062 ft | 482 kts | 68° |
| 2026-04-30 10:00 | 33.29927 | -95.30811 | 24671 ft | 488 kts | 68° |
| 2026-04-30 10:00 | 33.31004 | -95.26944 | 24989 ft | 492 kts | 68° |
| 2026-04-30 10:01 | 33.33174 | -95.19121 | 25634 ft | 499 kts | 68° |
| 2026-04-30 10:01 | 33.34267 | -95.15169 | 25941 ft | 503 kts | 68° |
| 2026-04-30 10:01 | 33.35365 | -95.11182 | 26252 ft | 505 kts | 68° |
| 2026-04-30 10:02 | 33.37571 | -95.03134 | 26887 ft | 512 kts | 68° |
| 2026-04-30 10:02 | 33.38683 | -94.99066 | 27211 ft | 516 kts | 68° |
| 2026-04-30 10:02 | 33.39801 | -94.94964 | 27540 ft | 519 kts | 68° |
| 2026-04-30 10:02 | 33.40913 | -94.90893 | 27867 ft | 522 kts | 67° |
| 2026-04-30 10:03 | 33.42048 | -94.86736 | 28197 ft | 526 kts | 67° |
| 2026-04-30 10:03 | 33.43215 | -94.82559 | 28537 ft | 530 kts | 66° |
| 2026-04-30 10:03 | 33.44406 | -94.78377 | 28878 ft | 533 kts | 66° |
| 2026-04-30 10:03 | 33.45603 | -94.74164 | 29211 ft | 537 kts | 66° |
| 2026-04-30 10:04 | 33.46778 | -94.69887 | 29534 ft | 542 kts | 67° |
| 2026-04-30 10:04 | 33.47942 | -94.65577 | 29863 ft | 545 kts | 67° |
| 2026-04-30 10:04 | 33.49106 | -94.61241 | 30171 ft | 548 kts | 67° |
| 2026-04-30 10:04 | 33.50278 | -94.56881 | 30452 ft | 551 kts | 67° |
| 2026-04-30 10:05 | 33.51443 | -94.52555 | 30739 ft | 553 kts | 67° |
| 2026-04-30 10:05 | 33.52621 | -94.48164 | 31023 ft | 554 kts | 67° |
| 2026-04-30 10:05 | 33.53804 | -94.43765 | 31316 ft | 555 kts | 67° |
| 2026-04-30 10:05 | 33.55029 | -94.39364 | 31607 ft | 556 kts | 66° |
| 2026-04-30 10:06 | 33.56261 | -94.34962 | 31906 ft | 559 kts | 66° |
| 2026-04-30 10:06 | 33.57465 | -94.30515 | 32206 ft | 560 kts | 67° |
| 2026-04-30 10:06 | 33.58656 | -94.26064 | 32508 ft | 562 kts | 67° |
| 2026-04-30 10:06 | 33.59851 | -94.21600 | 32817 ft | 562 kts | 67° |
| 2026-04-30 10:07 | 33.61046 | -94.17129 | 33103 ft | 563 kts | 67° |
| 2026-04-30 10:07 | 33.62241 | -94.12653 | 33390 ft | 563 kts | 67° |
| 2026-04-30 10:07 | 33.63420 | -94.08235 | 33673 ft | 563 kts | 67° |
| 2026-04-30 10:07 | 33.64609 | -94.03756 | 33965 ft | 563 kts | 67° |
| 2026-04-30 10:08 | 33.65792 | -93.99277 | 34222 ft | 562 kts | 67° |
| 2026-04-30 10:08 | 33.66974 | -93.94806 | 34454 ft | 562 kts | 66° |
| 2026-04-30 10:08 | 33.68171 | -93.90348 | 34686 ft | 561 kts | 66° |
| 2026-04-30 10:08 | 33.69394 | -93.85882 | 34924 ft | 560 kts | 66° |
| 2026-04-30 10:09 | 33.70615 | -93.81422 | 35026 ft | 563 kts | 66° |
| 2026-04-30 10:09 | 33.73010 | -93.72395 | 35046 ft | 570 kts | 66° |
| 2026-04-30 10:10 | 33.75376 | -93.63320 | 35047 ft | 575 kts | 66° |
| 2026-04-30 10:10 | 33.77789 | -93.54138 | 35051 ft | 577 kts | 66° |
| 2026-04-30 10:11 | 33.80219 | -93.44919 | 35053 ft | 578 kts | 66° |
| 2026-04-30 10:11 | 33.82659 | -93.35696 | 35053 ft | 579 kts | 66° |
| 2026-04-30 10:12 | 33.85051 | -93.26433 | 35059 ft | 581 kts | 67° |
| 2026-04-30 10:12 | 33.86996 | -93.18706 | 35064 ft | 581 kts | 67° |
| 2026-04-30 10:13 | 33.89797 | -93.07907 | 35061 ft | 580 kts | 65° |
| 2026-04-30 10:13 | 33.92400 | -93.00541 | 35068 ft | 571 kts | 57° |
| 2026-04-30 10:14 | 33.95871 | -92.91936 | 35065 ft | 572 kts | 57° |
| 2026-04-30 10:14 | 34.00891 | -92.78843 | 35069 ft | 574 kts | 58° |
| 2026-04-30 10:15 | 34.04164 | -92.70043 | 35063 ft | 575 kts | 59° |
| 2026-04-30 10:15 | 34.07397 | -92.61224 | 35062 ft | 575 kts | 59° |
| 2026-04-30 10:16 | 34.10646 | -92.52386 | 35060 ft | 576 kts | 59° |
| 2026-04-30 10:17 | 34.15622 | -92.39209 | 35065 ft | 576 kts | 59° |
| 2026-04-30 10:17 | 34.20517 | -92.25950 | 35067 ft | 576 kts | 59° |
| 2026-04-30 10:18 | 34.23779 | -92.17118 | 35071 ft | 576 kts | 59° |
| 2026-04-30 10:19 | 34.28661 | -92.03913 | 35073 ft | 576 kts | 59° |
| 2026-04-30 10:19 | 34.31847 | -91.95006 | 35071 ft | 577 kts | 59° |
| 2026-04-30 10:20 | 34.35042 | -91.86097 | 35070 ft | 576 kts | 58° |
| 2026-04-30 10:20 | 34.39950 | -91.72811 | 35079 ft | 576 kts | 58° |
| 2026-04-30 10:21 | 34.43170 | -91.63892 | 35084 ft | 578 kts | 59° |
| 2026-04-30 10:21 | 34.46343 | -91.54925 | 35089 ft | 578 kts | 59° |
| 2026-04-30 10:22 | 34.49547 | -91.46061 | 35088 ft | 577 kts | 58° |
| 2026-04-30 10:22 | 34.52807 | -91.37165 | 35085 ft | 578 kts | 59° |
| 2026-04-30 10:23 | 34.55982 | -91.28182 | 35078 ft | 579 kts | 59° |
| 2026-04-30 10:23 | 34.59143 | -91.19188 | 35072 ft | 579 kts | 59° |
| 2026-04-30 10:24 | 34.62350 | -91.10216 | 35068 ft | 578 kts | 58° |
| 2026-04-30 10:24 | 34.65598 | -91.01278 | 35069 ft | 579 kts | 59° |
| 2026-04-30 10:25 | 34.68773 | -90.92286 | 35068 ft | 579 kts | 59° |
| 2026-04-30 10:25 | 34.71933 | -90.83351 | 35066 ft | 579 kts | 59° |
| 2026-04-30 10:26 | 34.75112 | -90.74358 | 35065 ft | 579 kts | 59° |
| 2026-04-30 10:26 | 34.78284 | -90.65343 | 35068 ft | 579 kts | 59° |
| 2026-04-30 10:27 | 34.81381 | -90.56279 | 35067 ft | 579 kts | 59° |
| 2026-04-30 10:27 | 34.84532 | -90.47259 | 35069 ft | 578 kts | 58° |
| 2026-04-30 10:28 | 34.87694 | -90.38318 | 35068 ft | 579 kts | 59° |
| 2026-04-30 10:28 | 34.90800 | -90.29287 | 35065 ft | 578 kts | 59° |
| 2026-04-30 10:29 | 34.93904 | -90.20242 | 35068 ft | 577 kts | 59° |
| 2026-04-30 10:29 | 34.97017 | -90.11221 | 35072 ft | 577 kts | 59° |
| 2026-04-30 10:30 | 35.00132 | -90.02202 | 35073 ft | 576 kts | 59° |
| 2026-04-30 10:30 | 35.02663 | -89.92928 | 35049 ft | 592 kts | 76° |
| 2026-04-30 10:31 | 35.03564 | -89.82898 | 35084 ft | 594 kts | 79° |
| 2026-04-30 10:31 | 35.04585 | -89.72922 | 35077 ft | 591 kts | 77° |
| 2026-04-30 10:32 | 35.05727 | -89.62995 | 35068 ft | 589 kts | 77° |
| 2026-04-30 10:32 | 35.06974 | -89.53113 | 35062 ft | 588 kts | 76° |
| 2026-04-30 10:33 | 35.08157 | -89.43236 | 35064 ft | 587 kts | 77° |
| 2026-04-30 10:33 | 35.09329 | -89.33376 | 35064 ft | 586 kts | 77° |
| 2026-04-30 10:34 | 35.10519 | -89.23541 | 35063 ft | 585 kts | 77° |
| 2026-04-30 10:34 | 35.11640 | -89.13773 | 35066 ft | 584 kts | 77° |
| 2026-04-30 10:35 | 35.12737 | -89.03938 | 35060 ft | 583 kts | 77° |
| 2026-04-30 10:35 | 35.13851 | -88.94131 | 35060 ft | 582 kts | 77° |
| 2026-04-30 10:36 | 35.14985 | -88.84355 | 35057 ft | 581 kts | 77° |
| 2026-04-30 10:36 | 35.16138 | -88.74597 | 35055 ft | 579 kts | 77° |
| 2026-04-30 10:37 | 35.17223 | -88.64881 | 35054 ft | 579 kts | 78° |
| 2026-04-30 10:37 | 35.18290 | -88.55147 | 35054 ft | 577 kts | 78° |
| 2026-04-30 10:38 | 35.19382 | -88.45424 | 35045 ft | 576 kts | 78° |
| 2026-04-30 10:38 | 35.20486 | -88.35720 | 35042 ft | 575 kts | 78° |
| 2026-04-30 10:39 | 35.21511 | -88.26015 | 35045 ft | 575 kts | 79° |
| 2026-04-30 10:39 | 35.22541 | -88.16320 | 35046 ft | 574 kts | 79° |
| 2026-04-30 10:40 | 35.23593 | -88.06642 | 35043 ft | 573 kts | 79° |
| 2026-04-30 10:40 | 35.24662 | -87.96987 | 35042 ft | 572 kts | 79° |
| 2026-04-30 10:41 | 35.25654 | -87.87395 | 35039 ft | 571 kts | 79° |
| 2026-04-30 10:41 | 35.26675 | -87.77757 | 35038 ft | 571 kts | 79° |
| 2026-04-30 10:42 | 35.27713 | -87.68129 | 35039 ft | 570 kts | 80° |
| 2026-04-30 10:42 | 35.28679 | -87.58497 | 35039 ft | 570 kts | 81° |
| 2026-04-30 10:43 | 35.29644 | -87.48871 | 35039 ft | 569 kts | 80° |
| 2026-04-30 10:43 | 35.30639 | -87.39267 | 35039 ft | 569 kts | 80° |
| 2026-04-30 10:44 | 35.31649 | -87.29669 | 35039 ft | 568 kts | 81° |
| 2026-04-30 10:44 | 35.32582 | -87.20046 | 35042 ft | 568 kts | 81° |
| 2026-04-30 10:45 | 35.33502 | -87.10510 | 35043 ft | 567 kts | 81° |
| 2026-04-30 10:45 | 35.34451 | -87.00913 | 35040 ft | 567 kts | 81° |
| 2026-04-30 10:46 | 35.35413 | -86.91324 | 35042 ft | 566 kts | 81° |
| 2026-04-30 10:46 | 35.36355 | -86.81798 | 35042 ft | 557 kts | 82° |
| 2026-04-30 10:47 | 35.37203 | -86.72460 | 35041 ft | 547 kts | 82° |
| 2026-04-30 10:47 | 35.38048 | -86.63228 | 35046 ft | 545 kts | 82° |
| 2026-04-30 10:48 | 35.38908 | -86.53988 | 35032 ft | 545 kts | 82° |
| 2026-04-30 10:48 | 35.39786 | -86.44753 | 35032 ft | 545 kts | 82° |
| 2026-04-30 10:49 | 35.40681 | -86.35510 | 35008 ft | 545 kts | 82° |
| 2026-04-30 10:49 | 35.41582 | -86.26311 | 34597 ft | 552 kts | 82° |
| 2026-04-30 10:50 | 35.42005 | -86.21640 | 34182 ft | 548 kts | 83° |
| 2026-04-30 10:50 | 35.42417 | -86.17034 | 33747 ft | 540 kts | 83° |
| 2026-04-30 10:50 | 35.42830 | -86.12476 | 33296 ft | 535 kts | 83° |
| 2026-04-30 10:50 | 35.43244 | -86.07955 | 32858 ft | 533 kts | 82° |
| 2026-04-30 10:51 | 35.43662 | -86.03451 | 32422 ft | 530 kts | 82° |
| 2026-04-30 10:51 | 35.44080 | -85.98982 | 32003 ft | 526 kts | 83° |
| 2026-04-30 10:51 | 35.44465 | -85.94533 | 31584 ft | 522 kts | 83° |
| 2026-04-30 10:51 | 35.44834 | -85.90118 | 31182 ft | 519 kts | 83° |
| 2026-04-30 10:52 | 35.45203 | -85.85729 | 30770 ft | 516 kts | 83° |
| 2026-04-30 10:52 | 35.45572 | -85.81365 | 30367 ft | 512 kts | 83° |
| 2026-04-30 10:52 | 35.45941 | -85.77044 | 29944 ft | 508 kts | 83° |
| 2026-04-30 10:52 | 35.46309 | -85.72743 | 29475 ft | 505 kts | 83° |
| 2026-04-30 10:53 | 35.46674 | -85.68481 | 29007 ft | 501 kts | 83° |
| 2026-04-30 10:53 | 35.47032 | -85.64246 | 28552 ft | 497 kts | 83° |
| 2026-04-30 10:53 | 35.47382 | -85.60100 | 28112 ft | 493 kts | 83° |
| 2026-04-30 10:53 | 35.47733 | -85.55932 | 27673 ft | 489 kts | 83° |
| 2026-04-30 10:54 | 35.48076 | -85.51799 | 27228 ft | 486 kts | 83° |
| 2026-04-30 10:54 | 35.48440 | -85.47691 | 26801 ft | 482 kts | 82° |
| 2026-04-30 10:54 | 35.48825 | -85.43615 | 26377 ft | 479 kts | 82° |
| 2026-04-30 10:54 | 35.49206 | -85.39572 | 25963 ft | 476 kts | 82° |
| 2026-04-30 10:55 | 35.49564 | -85.35549 | 25554 ft | 473 kts | 83° |
| 2026-04-30 10:55 | 35.49887 | -85.31540 | 25146 ft | 469 kts | 83° |
| 2026-04-30 10:55 | 35.50199 | -85.27571 | 24749 ft | 466 kts | 83° |
| 2026-04-30 10:55 | 35.50509 | -85.23621 | 24359 ft | 463 kts | 83° |
| 2026-04-30 10:56 | 35.50818 | -85.19681 | 23965 ft | 461 kts | 82° |
| 2026-04-30 10:56 | 35.51157 | -85.15779 | 23578 ft | 458 kts | 82° |
| 2026-04-30 10:56 | 35.51494 | -85.11901 | 23127 ft | 455 kts | 82° |
| 2026-04-30 10:56 | 35.51826 | -85.08052 | 22680 ft | 452 kts | 82° |
| 2026-04-30 10:57 | 35.52156 | -85.04223 | 22237 ft | 449 kts | 82° |
| 2026-04-30 10:57 | 35.52486 | -85.00418 | 21800 ft | 446 kts | 82° |
| 2026-04-30 10:57 | 35.52812 | -84.96642 | 21365 ft | 443 kts | 82° |
| 2026-04-30 10:57 | 35.53102 | -84.92892 | 20946 ft | 440 kts | 83° |
| 2026-04-30 10:58 | 35.53377 | -84.89170 | 20527 ft | 436 kts | 83° |
| 2026-04-30 10:58 | 35.53647 | -84.85532 | 20121 ft | 432 kts | 82° |
| 2026-04-30 10:58 | 35.53922 | -84.81878 | 19718 ft | 428 kts | 83° |
| 2026-04-30 10:58 | 35.54193 | -84.78250 | 19318 ft | 424 kts | 83° |
| 2026-04-30 10:59 | 35.54464 | -84.74658 | 18926 ft | 421 kts | 82° |
| 2026-04-30 10:59 | 35.54644 | -84.72291 | 18670 ft | 419 kts | 82° |
| 2026-04-30 10:59 | 35.54917 | -84.68738 | 18281 ft | 416 kts | 82° |
| 2026-04-30 10:59 | 35.55189 | -84.65219 | 17837 ft | 413 kts | 82° |
| 2026-04-30 11:00 | 35.55461 | -84.61726 | 17397 ft | 409 kts | 83° |
| 2026-04-30 11:00 | 35.55740 | -84.58271 | 16952 ft | 404 kts | 82° |
| 2026-04-30 11:00 | 35.56027 | -84.54851 | 16513 ft | 399 kts | 82° |
| 2026-04-30 11:00 | 35.56313 | -84.51523 | 16041 ft | 386 kts | 82° |
| 2026-04-30 11:01 | 35.56589 | -84.48281 | 15474 ft | 376 kts | 83° |
| 2026-04-30 11:01 | 35.56837 | -84.45106 | 14920 ft | 368 kts | 83° |
| 2026-04-30 11:01 | 35.57089 | -84.42008 | 14372 ft | 361 kts | 83° |
| 2026-04-30 11:01 | 35.57332 | -84.39018 | 13846 ft | 354 kts | 84° |
| 2026-04-30 11:02 | 35.57563 | -84.36038 | 13273 ft | 344 kts | 84° |
| 2026-04-30 11:02 | 35.57949 | -84.33219 | 12654 ft | 329 kts | 69° |
| 2026-04-30 11:02 | 35.59021 | -84.30840 | 12040 ft | 306 kts | 54° |
| 2026-04-30 11:02 | 35.60142 | -84.28752 | 11516 ft | 280 kts | 55° |
| 2026-04-30 11:03 | 35.61150 | -84.26843 | 11006 ft | 252 kts | 55° |
| 2026-04-30 11:03 | 35.62096 | -84.25069 | 10453 ft | 250 kts | 55° |
| 2026-04-30 11:03 | 35.63058 | -84.23230 | 9918 ft | 257 kts | 56° |
| 2026-04-30 11:04 | 35.64968 | -84.19598 | 8735 ft | 253 kts | 56° |
| 2026-04-30 11:04 | 35.65936 | -84.17791 | 8167 ft | 252 kts | 55° |
| 2026-04-30 11:04 | 35.66994 | -84.16084 | 7595 ft | 250 kts | 44° |
| 2026-04-30 11:04 | 35.68240 | -84.14606 | 7046 ft | 249 kts | 41° |
| 2026-04-30 11:05 | 35.69472 | -84.13107 | 6512 ft | 248 kts | 42° |
| 2026-04-30 11:05 | 35.70699 | -84.11621 | 5933 ft | 246 kts | 42° |
| 2026-04-30 11:05 | 35.71911 | -84.10184 | 4764 ft | 248 kts | 40° |
| 2026-04-30 11:05 | 35.73193 | -84.08861 | 4087 ft | 227 kts | 34° |
| 2026-04-30 11:06 | 35.74384 | -84.07773 | 3544 ft | 210 kts | 37° |
| 2026-04-30 11:06 | 35.75518 | -84.06681 | 2855 ft | 204 kts | 39° |
| 2026-04-30 11:06 | 35.76340 | -84.05423 | 2499 ft | 180 kts | 56° |
| 2026-04-30 11:06 | 35.77123 | -84.04186 | 1936 ft | 186 kts | 50° |
| 2026-04-30 11:07 | 35.77983 | -84.02997 | 1460 ft | 183 kts | 47° |
| 2026-04-30 11:07 | 35.78811 | -84.01888 | 1190 ft | 167 kts | 42° |
| 2026-04-30 11:07 | 35.79596 | -84.00935 | 1018 ft | 149 kts | 42° |
| 2026-04-30 11:07 | 35.80272 | -84.00105 | 956 ft | 125 kts | 46° |
| 2026-04-30 11:08 | 35.80798 | -83.99449 | 957 ft | 85 kts | 46° |
| 2026-04-30 11:08 | 35.81018 | -83.99174 | 962 ft | 25 kts | 45° |
| 2026-04-30 11:08 | 35.81056 | -83.99039 | 962 ft | 14 kts | 152° |
| 2026-04-30 11:08 | 35.80963 | -83.99030 | 962 ft | 13 kts | 177° |
| 2026-04-30 11:09 | 35.80878 | -83.99054 | 961 ft | 13 kts | 219° |
| 2026-04-30 11:09 | 35.80813 | -83.99128 | 960 ft | 13 kts | 224° |
| 2026-04-30 11:09 | 35.80753 | -83.99205 | 955 ft | 12 kts | 230° |
| 2026-04-30 11:09 | 35.80704 | -83.99269 | 958 ft | 8 kts | 225° |
| 2026-04-30 11:10 | 35.80664 | -83.99320 | 958 ft | 8 kts | 225° |
| 2026-04-30 11:10 | 35.80616 | -83.99355 | 955 ft | 8 kts | 188° |
| 2026-04-30 11:10 | 35.80570 | -83.99324 | 956 ft | 8 kts | 130° |
| 2026-04-30 11:10 | 35.80536 | -83.99272 | 957 ft | 8 kts | 128° |
| 2026-04-30 11:11 | 35.80508 | -83.99219 | 956 ft | 7 kts | 105° |
| 2026-04-30 11:11 | 35.80507 | -83.99208 | 957 ft | 0 kts | 95° |
| 2026-04-30 11:11 | 35.80506 | -83.99198 | 957 ft | 1 kts | 96° |
| 2026-04-30 11:11 | 35.80512 | -83.99167 | 958 ft | 8 kts | 66° |
| 2026-04-30 11:12 | 35.80513 | -83.99166 | 958 ft | 0 kts | 57° |
| 2026-04-30 11:12 | 35.80526 | -83.99134 | 959 ft | 0 kts | 72° |
| 2026-04-30 11:12 | 35.80539 | -83.99118 | 958 ft | 3 kts | 31° |
| 2026-04-30 11:13 | 35.80570 | -83.99125 | 957 ft | 6 kts | 6° |
| 2026-04-30 11:13 | 35.80594 | -83.99116 | 958 ft | 0 kts | 16° |